createdAt,value
2023-04-15T00:02:18.430Z,6.93
2023-04-15T00:04:48.462Z,11.73
2023-04-15T00:07:16.352Z,9.32
2023-04-15T00:09:44.686Z,8.73
2023-04-15T00:12:13.274Z,10.38
2023-04-15T00:14:40.991Z,11.05
2023-04-15T00:17:08.784Z,9.63
2023-04-15T00:19:36.820Z,9.82
2023-04-15T00:22:06.197Z,8.50
2023-04-15T00:24:33.991Z,11.82
2023-04-15T00:27:01.914Z,8.88
2023-04-15T00:29:30.487Z,7.15
2023-04-15T00:31:58.483Z,9.23
2023-04-15T00:34:26.219Z,12.77
2023-04-15T00:36:53.979Z,8.57
2023-04-15T00:39:23.832Z,10.10
2023-04-15T00:41:51.803Z,8.70
2023-04-15T00:44:20.055Z,6.95
2023-04-15T00:46:48.669Z,12.23
2023-04-15T00:49:16.395Z,8.82
2023-04-15T00:51:44.852Z,6.28
2023-04-15T00:54:12.867Z,8.13
2023-04-15T00:56:42.113Z,11.40
2023-04-15T00:59:10.298Z,6.40
2023-04-15T01:01:38.495Z,9.77
2023-04-15T01:04:06.944Z,7.15
2023-04-15T01:06:34.822Z,12.90
2023-04-15T01:09:03.422Z,6.85
2023-04-15T01:11:34.288Z,9.27
2023-04-15T01:14:04.254Z,6.97
2023-04-15T01:16:32.590Z,6.53
2023-04-15T01:19:00.656Z,6.80
2023-04-15T01:21:29.071Z,9.95
2023-04-15T01:23:58.404Z,8.98
2023-04-15T01:26:28.323Z,9.30
2023-04-15T01:28:56.370Z,14.27
2023-04-15T01:31:24.177Z,7.43
2023-04-15T01:33:51.990Z,9.98
2023-04-15T01:36:19.759Z,8.13
2023-04-15T01:38:47.979Z,10.38
2023-04-15T01:41:15.761Z,7.22
2023-04-15T01:43:44.793Z,12.13
2023-04-15T01:46:12.779Z,11.05
2023-04-15T01:48:40.516Z,8.25
2023-04-15T01:51:08.283Z,8.55
2023-04-15T01:53:35.994Z,10.90
2023-04-15T01:56:03.701Z,9.10
2023-04-15T01:58:31.485Z,7.50
2023-04-15T02:01:00.668Z,8.93
2023-04-15T02:03:30.021Z,8.60
2023-04-15T02:05:57.838Z,7.88
2023-04-15T02:08:25.605Z,8.32
2023-04-15T02:10:53.508Z,6.97
2023-04-15T02:13:21.231Z,6.80
2023-04-15T02:15:49.529Z,9.32
2023-04-15T02:18:18.606Z,6.80
2023-04-15T02:20:47.151Z,6.22
2023-04-15T02:23:15.209Z,10.98
2023-04-15T02:25:42.901Z,7.18
2023-04-15T02:28:21.329Z,11.40
2023-04-15T02:30:50.830Z,10.82
2023-04-15T02:33:20.206Z,8.93
2023-04-15T02:35:47.948Z,9.10
2023-04-15T02:38:17.849Z,11.57
2023-04-15T02:40:46.194Z,8.25
2023-04-15T02:43:13.815Z,10.77
2023-04-15T02:45:43.509Z,8.77
2023-04-15T02:48:11.593Z,9.35
2023-04-15T02:50:41.049Z,8.18
2023-04-15T02:53:08.845Z,8.77
2023-04-15T02:55:37.005Z,6.80
2023-04-15T02:58:04.746Z,8.57
2023-04-15T03:00:32.466Z,7.40
2023-04-15T03:03:05.702Z,12.02
2023-04-15T03:05:33.631Z,6.60
2023-04-15T03:08:03.200Z,9.52
2023-04-15T03:10:30.932Z,8.50
2023-04-15T03:12:58.577Z,8.43
2023-04-15T03:15:27.130Z,6.03
2023-04-15T03:17:54.879Z,9.38
2023-04-15T03:20:22.760Z,9.50
2023-04-15T03:22:50.480Z,9.45
2023-04-15T03:25:19.537Z,6.88
2023-04-15T03:27:47.261Z,8.48
2023-04-15T03:30:15.027Z,10.13
2023-04-15T03:32:42.983Z,9.63
2023-04-15T03:35:10.971Z,6.07
2023-04-15T03:37:38.634Z,7.43
2023-04-15T03:40:07.639Z,5.30
2023-04-15T03:42:36.733Z,9.80
2023-04-15T03:45:04.836Z,8.30
2023-04-15T03:47:32.605Z,8.93
2023-04-15T03:50:00.406Z,10.27
2023-04-15T03:52:28.035Z,5.22
2023-04-15T03:54:56.048Z,6.65
2023-04-15T03:57:23.726Z,9.15
2023-04-15T03:59:52.792Z,10.23
2023-04-15T04:02:20.685Z,9.10
2023-04-15T04:04:48.526Z,12.57
2023-04-15T04:07:17.482Z,3.95
2023-04-15T04:09:47.043Z,5.40
2023-04-15T04:12:15.066Z,6.80
2023-04-15T04:14:42.770Z,5.60
2023-04-15T04:17:11.946Z,9.38
2023-04-15T04:19:39.650Z,7.55
2023-04-15T04:22:07.530Z,6.00
2023-04-15T04:24:35.208Z,7.40
2023-04-15T04:27:03.030Z,10.98
2023-04-15T04:29:30.772Z,11.82
2023-04-15T04:31:58.520Z,7.35
2023-04-15T04:34:27.595Z,6.80
2023-04-15T04:36:55.199Z,7.95
2023-04-15T04:39:22.943Z,8.45
2023-04-15T04:41:52.160Z,10.52
2023-04-15T04:44:19.845Z,7.38
2023-04-15T04:46:47.593Z,9.30
2023-04-15T04:49:15.480Z,8.85
2023-04-15T04:51:44.788Z,5.10
2023-04-15T04:54:12.451Z,9.45
2023-04-15T04:56:40.350Z,7.88
2023-04-15T04:59:09.371Z,7.68
2023-04-15T05:01:37.351Z,5.85
2023-04-15T05:04:05.670Z,8.52
2023-04-15T05:06:38.446Z,9.95
2023-04-15T05:09:07.495Z,7.05
2023-04-15T05:11:35.271Z,7.38
2023-04-15T05:14:02.996Z,14.07
2023-04-15T05:16:30.705Z,6.95
2023-04-15T05:18:58.342Z,8.23
2023-04-15T05:21:26.180Z,11.07
2023-04-15T05:23:53.897Z,5.60
2023-04-15T05:26:24.254Z,7.60
2023-04-15T05:28:52.017Z,10.57
2023-04-15T05:31:19.715Z,9.10
2023-04-15T05:33:47.437Z,14.88
2023-04-15T05:36:15.123Z,7.55
2023-04-15T05:38:42.751Z,9.55
2023-04-15T05:41:10.461Z,8.20
2023-04-15T05:43:39.518Z,7.75
2023-04-15T05:46:07.270Z,5.22
2023-04-15T05:48:35.048Z,5.93
2023-04-15T05:51:02.812Z,6.25
2023-04-15T05:53:30.492Z,14.98
2023-04-15T05:55:58.140Z,7.00
2023-04-15T05:58:26.056Z,6.43
2023-04-15T06:00:55.160Z,8.18
2023-04-15T06:03:23.005Z,7.25
2023-04-15T06:05:50.936Z,12.43
2023-04-15T06:08:18.959Z,7.70
2023-04-15T06:10:46.808Z,7.30
2023-04-15T06:13:14.576Z,7.10
2023-04-15T06:15:42.280Z,9.07
2023-04-15T06:18:11.766Z,21.33
2023-04-15T06:20:39.755Z,10.25
2023-04-15T06:23:07.517Z,7.03
2023-04-15T06:25:35.445Z,8.50
2023-04-15T06:28:03.157Z,16.50
2023-04-15T06:30:30.895Z,6.00
2023-04-15T06:32:58.892Z,10.10
2023-04-15T06:35:28.592Z,8.25
2023-04-15T06:37:56.704Z,13.63
2023-04-15T06:40:24.379Z,10.07
2023-04-15T06:42:52.070Z,10.38
2023-04-15T06:45:19.696Z,8.32
2023-04-15T06:47:47.403Z,10.23
2023-04-15T06:50:15.100Z,8.05
2023-04-15T06:52:44.228Z,8.13
2023-04-15T06:55:11.991Z,9.23
2023-04-15T06:57:39.676Z,10.05
2023-04-15T07:00:08.620Z,12.65
2023-04-15T07:02:36.879Z,11.65
2023-04-15T07:05:05.725Z,11.38
2023-04-15T07:07:33.551Z,11.23
2023-04-15T07:10:03.422Z,15.30
2023-04-15T07:12:31.854Z,15.82
2023-04-15T07:15:00.068Z,13.90
2023-04-15T07:17:28.017Z,15.63
2023-04-15T07:19:55.775Z,11.70
2023-04-15T07:22:23.598Z,15.57
2023-04-15T07:24:51.402Z,10.95
2023-04-15T07:27:20.999Z,17.00
2023-04-15T07:29:49.228Z,15.30
2023-04-15T07:32:17.089Z,20.80
2023-04-15T07:34:45.609Z,11.33
2023-04-15T07:37:13.759Z,9.90
2023-04-15T07:39:41.818Z,10.23
2023-04-15T07:42:09.788Z,10.37
2023-04-15T07:44:38.904Z,12.33
2023-04-15T07:47:06.848Z,9.53
2023-04-15T07:49:35.008Z,9.03
2023-04-15T07:52:03.112Z,12.70
2023-04-15T07:54:30.939Z,14.13
2023-04-15T07:56:59.069Z,16.40
2023-04-15T07:59:27.986Z,10.90
2023-04-15T08:01:57.618Z,11.23
2023-04-15T08:04:27.765Z,11.80
2023-04-15T08:06:55.700Z,13.60
2023-04-15T08:09:23.411Z,9.43
2023-04-15T08:11:51.160Z,12.33
2023-04-15T08:14:19.187Z,10.93
2023-04-15T08:16:46.977Z,9.20
2023-04-15T08:19:16.173Z,13.60
2023-04-15T08:21:43.844Z,8.80
2023-04-15T08:24:12.460Z,10.47
2023-04-15T08:26:40.394Z,9.63
2023-04-15T08:29:14.417Z,11.03
2023-04-15T08:31:43.135Z,10.07
2023-04-15T08:34:10.914Z,10.97
2023-04-15T08:36:40.052Z,8.33
2023-04-15T08:39:08.205Z,18.53
2023-04-15T08:41:41.789Z,13.50
2023-04-15T08:44:10.057Z,10.80
2023-04-15T08:46:38.170Z,13.70
2023-04-15T08:49:07.180Z,8.57
2023-04-15T08:51:35.171Z,8.67
2023-04-15T08:54:05.615Z,14.20
2023-04-15T08:56:34.301Z,8.07
2023-04-15T08:59:02.862Z,8.63
2023-04-15T09:01:30.924Z,8.63
2023-04-15T09:04:00.543Z,9.90
2023-04-15T09:06:28.415Z,9.00
2023-04-15T09:08:56.309Z,6.60
2023-04-15T09:11:25.929Z,8.33
2023-04-15T09:13:53.922Z,9.00
2023-04-15T09:16:21.596Z,7.97
2023-04-15T09:18:49.960Z,11.57
2023-04-15T09:21:19.213Z,8.17
2023-04-15T09:23:57.256Z,6.97
2023-04-15T09:26:37.439Z,8.43
2023-04-15T09:29:07.465Z,6.10
2023-04-15T09:31:35.563Z,12.97
2023-04-15T09:34:03.957Z,8.80
2023-04-15T09:36:42.870Z,10.77
2023-04-15T09:39:10.625Z,8.67
2023-04-15T09:41:40.371Z,7.30
2023-04-15T09:44:08.531Z,5.40
2023-04-15T09:46:43.129Z,7.10
2023-04-15T09:49:11.530Z,7.97
2023-04-15T09:51:39.661Z,15.27
2023-04-15T09:54:07.421Z,6.07
2023-04-15T09:56:37.826Z,5.63
2023-04-15T09:59:07.415Z,7.00
2023-04-15T10:01:36.913Z,5.60
2023-04-15T10:04:06.464Z,4.67
2023-04-15T10:06:35.506Z,8.70
2023-04-15T10:09:03.438Z,4.50
2023-04-15T10:11:31.949Z,5.00
2023-04-15T10:14:00.522Z,7.73
2023-04-15T10:16:30.406Z,4.50
2023-04-15T10:18:59.432Z,8.00
2023-04-15T10:21:29.121Z,6.90
2023-04-15T10:23:57.264Z,5.70
2023-04-15T10:26:25.682Z,4.53
2023-04-15T10:28:54.816Z,7.87
2023-04-15T10:31:23.024Z,5.20
2023-04-15T10:33:53.580Z,6.33
2023-04-15T10:36:21.992Z,6.10
2023-04-15T10:38:49.863Z,5.37
2023-04-15T10:41:21.640Z,8.43
2023-04-15T10:43:51.643Z,10.93
2023-04-15T10:46:37.189Z,5.20
2023-04-15T10:49:11.245Z,15.10
2023-04-15T10:51:41.691Z,6.83
2023-04-15T10:54:11.195Z,7.03
2023-04-15T10:56:38.882Z,7.07
2023-04-15T10:59:07.487Z,7.97
2023-04-15T11:02:00.178Z,6.20
2023-04-15T11:04:54.707Z,5.97
2023-04-15T11:07:38.767Z,7.67
2023-04-15T11:10:51.384Z,10.80
2023-04-15T11:13:22.690Z,10.20
2023-04-15T11:15:51.945Z,6.87
2023-04-15T11:18:22.259Z,7.13
2023-04-15T11:20:54.515Z,12.93
2023-04-15T11:23:30.176Z,8.33
2023-04-15T11:25:58.260Z,8.93
2023-04-15T11:28:27.628Z,7.80
2023-04-15T11:30:56.669Z,9.13
2023-04-15T11:33:25.398Z,9.20
2023-04-15T11:35:55.431Z,12.47
2023-04-15T11:38:23.553Z,6.20
2023-04-15T11:40:52.677Z,6.60
2023-04-15T11:43:22.182Z,9.70
2023-04-15T11:45:53.207Z,8.50
2023-04-15T11:48:23.194Z,8.80
2023-04-15T11:50:56.960Z,7.30
2023-04-15T11:53:25.991Z,9.93
2023-04-15T11:55:55.020Z,7.53
2023-04-15T11:58:24.551Z,9.60
2023-04-15T12:00:54.454Z,8.90
2023-04-15T12:03:26.671Z,8.77
2023-04-15T12:06:16.733Z,8.00
2023-04-15T12:08:57.276Z,4.77
2023-04-15T12:11:33.862Z,5.43
2023-04-15T12:14:06.048Z,10.70
2023-04-15T12:16:37.188Z,6.40
2023-04-15T12:19:17.592Z,5.73
2023-04-15T12:21:48.988Z,7.23
2023-04-15T12:24:16.728Z,4.57
2023-04-15T12:26:46.495Z,6.43
2023-04-15T12:29:16.341Z,6.27
2023-04-15T12:31:51.739Z,10.73
2023-04-15T12:34:26.874Z,10.00
2023-04-15T12:36:56.442Z,7.50
2023-04-15T12:39:25.274Z,8.53
2023-04-15T12:41:53.488Z,6.37
2023-04-15T12:44:24.016Z,7.37
2023-04-15T12:46:52.804Z,8.43
2023-04-15T12:49:21.728Z,7.30
2023-04-15T12:51:50.737Z,8.80
2023-04-15T12:54:20.183Z,5.93
2023-04-15T12:56:48.737Z,8.00
2023-04-15T12:59:17.823Z,7.07
2023-04-15T13:01:45.869Z,7.63
2023-04-15T13:04:13.767Z,9.10
2023-04-15T13:06:41.669Z,8.03
2023-04-15T13:09:09.564Z,8.00
2023-04-15T13:11:38.834Z,9.30
2023-04-15T13:14:08.445Z,8.00
2023-04-15T13:16:36.622Z,6.63
2023-04-15T13:19:05.587Z,10.00
2023-04-15T13:21:36.236Z,7.43
2023-04-15T13:24:07.251Z,9.03
2023-04-15T13:26:36.079Z,3.57
2023-04-15T13:29:05.220Z,5.40
2023-04-15T13:31:33.041Z,3.40
2023-04-15T13:34:00.837Z,6.93
2023-04-15T13:36:28.534Z,6.83
2023-04-15T13:38:57.044Z,8.30
2023-04-15T13:41:24.827Z,5.87
2023-04-15T13:43:52.620Z,6.10
2023-04-15T13:46:21.985Z,5.40
2023-04-15T13:48:49.942Z,6.87
2023-04-15T13:51:17.760Z,3.83
2023-04-15T13:53:45.407Z,4.33
2023-04-15T13:56:13.137Z,5.57
2023-04-15T13:58:42.048Z,5.40
2023-04-15T14:01:09.849Z,2.73
2023-04-15T14:03:39.492Z,2.60
2023-04-15T14:06:07.544Z,5.17
2023-04-15T14:08:35.430Z,2.28
2023-04-15T14:11:03.249Z,4.03
2023-04-15T14:13:31.361Z,11.67
2023-04-15T14:15:59.312Z,3.43
2023-04-15T14:18:27.310Z,3.20
2023-04-15T14:20:56.424Z,2.90
2023-04-15T14:23:24.309Z,3.13
2023-04-15T14:25:52.797Z,1.97
2023-04-15T14:28:20.597Z,2.57
2023-04-15T14:30:48.537Z,3.50
2023-04-15T14:33:16.693Z,2.97
2023-04-15T14:35:44.502Z,5.37
2023-04-15T14:38:13.912Z,2.60
2023-04-15T14:40:42.259Z,2.97
2023-04-15T14:43:10.139Z,2.53
2023-04-15T14:45:41.866Z,4.87
2023-04-15T14:48:12.660Z,2.87
2023-04-15T14:50:41.019Z,3.27
2023-04-15T14:53:08.784Z,6.67
2023-04-15T14:55:37.950Z,4.20
2023-04-15T14:58:06.008Z,3.00
2023-04-15T15:00:33.851Z,6.47
2023-04-15T15:03:01.829Z,3.30
2023-04-15T15:05:29.845Z,5.10
2023-04-15T15:07:57.615Z,4.27
2023-04-15T15:10:33.087Z,5.57
2023-04-15T15:13:14.732Z,4.80
2023-04-15T15:15:42.826Z,3.60
2023-04-15T15:18:11.531Z,6.37
2023-04-15T15:20:39.438Z,2.80
2023-04-15T15:23:07.348Z,2.33
2023-04-15T15:25:35.186Z,2.63
2023-04-15T15:28:03.081Z,3.83
2023-04-15T15:30:32.288Z,3.60
2023-04-15T15:33:00.184Z,2.40
2023-04-15T15:35:28.185Z,4.07
2023-04-15T15:37:57.437Z,4.93
2023-04-15T15:40:25.302Z,5.20
2023-04-15T15:42:53.624Z,6.70
2023-04-15T15:45:21.406Z,3.40
2023-04-15T15:47:50.707Z,5.80
2023-04-15T15:50:18.564Z,10.23
2023-04-15T15:52:46.364Z,3.50
2023-04-15T15:55:14.111Z,5.43
2023-04-15T15:57:42.356Z,5.57
2023-04-15T16:00:12.768Z,5.67
2023-04-15T16:05:13.163Z,3.63
2023-04-15T16:07:41.260Z,3.50
2023-04-15T16:10:10.101Z,3.33
2023-04-15T16:12:37.858Z,4.03
2023-04-15T16:15:06.400Z,6.57
2023-04-15T16:17:34.237Z,8.50
2023-04-15T16:20:05.577Z,3.57
2023-04-15T16:22:36.262Z,4.37
2023-04-15T16:25:04.184Z,5.03
2023-04-15T16:27:32.217Z,4.15
2023-04-15T16:29:59.956Z,3.50
2023-04-15T16:32:27.774Z,3.57
2023-04-15T16:34:56.892Z,4.50
2023-04-15T16:37:24.607Z,3.77
2023-04-15T16:39:54.191Z,6.93
2023-04-15T16:42:21.996Z,5.07
2023-04-15T16:44:49.714Z,3.80
2023-04-15T16:47:17.435Z,4.37
2023-04-15T16:49:45.173Z,6.80
2023-04-15T16:52:12.942Z,7.80
2023-04-15T16:54:41.616Z,4.38
2023-04-15T16:57:10.842Z,6.07
2023-04-15T16:59:39.204Z,5.07
2023-04-15T17:02:07.196Z,8.60
2023-04-15T17:04:35.914Z,9.48
2023-04-15T17:07:04.107Z,5.80
2023-04-15T17:09:31.812Z,8.60
2023-04-15T17:11:59.611Z,9.03
2023-04-15T17:14:29.705Z,6.50
2023-04-15T17:16:57.503Z,6.20
2023-04-15T17:19:26.775Z,9.50
2023-04-15T17:21:55.161Z,12.20
2023-04-15T17:24:23.079Z,11.63
2023-04-15T17:26:50.910Z,5.45
2023-04-15T17:29:18.621Z,7.35
2023-04-15T17:31:47.798Z,7.05
2023-04-15T17:34:16.182Z,6.07
2023-04-15T17:36:44.025Z,9.10
2023-04-15T17:39:11.948Z,8.48
2023-04-15T17:41:39.646Z,8.02
2023-04-15T17:44:07.538Z,7.50
2023-04-15T17:46:35.442Z,12.35
2023-04-15T17:49:05.918Z,12.60
2023-04-15T17:51:33.868Z,8.48
2023-04-15T17:54:01.683Z,10.07
2023-04-15T17:56:29.630Z,6.60
2023-04-15T17:58:58.386Z,6.00
2023-04-15T18:01:26.437Z,6.78
2023-04-15T18:03:54.376Z,8.75
2023-04-15T18:06:23.749Z,7.28
2023-04-15T18:08:52.460Z,7.47
2023-04-15T18:11:20.424Z,5.50
2023-04-15T18:13:48.248Z,5.95
2023-04-15T18:16:16.073Z,19.70
2023-04-15T18:18:43.820Z,7.10
2023-04-15T18:21:13.617Z,5.05
2023-04-15T18:23:42.946Z,7.03
2023-04-15T18:26:10.785Z,5.80
2023-04-15T18:28:39.759Z,5.40
2023-04-15T18:31:07.823Z,4.03
2023-04-15T18:33:35.986Z,4.10
2023-04-15T18:36:03.797Z,4.53
2023-04-15T18:38:31.760Z,4.25
2023-04-15T18:41:00.852Z,4.40
2023-04-15T18:43:28.598Z,6.38
2023-04-15T18:45:56.504Z,9.18
2023-04-15T18:48:24.335Z,3.90
2023-04-15T18:50:53.962Z,4.63
2023-04-15T18:53:21.843Z,5.45
2023-04-15T18:55:49.683Z,5.60
2023-04-15T18:58:19.007Z,6.55
2023-04-15T19:00:46.814Z,5.10
2023-04-15T19:03:14.792Z,6.10
2023-04-15T19:05:42.557Z,9.13
2023-04-15T19:08:11.283Z,7.97
2023-04-15T19:10:39.152Z,6.28
2023-04-15T19:13:07.571Z,9.05
2023-04-15T19:15:36.697Z,7.80
2023-04-15T19:18:10.325Z,6.03
2023-04-15T19:20:39.971Z,6.60
2023-04-15T19:23:08.206Z,9.85
2023-04-15T19:25:35.955Z,7.40
2023-04-15T19:28:03.841Z,6.60
2023-04-15T19:30:33.061Z,8.77
2023-04-15T19:33:02.229Z,7.55
2023-04-15T19:35:30.014Z,7.40
2023-04-15T19:37:57.884Z,8.73
2023-04-15T19:40:25.946Z,9.05
2023-04-15T19:42:53.721Z,8.48
2023-04-15T19:45:21.438Z,7.90
2023-04-15T19:47:56.356Z,8.13
2023-04-15T19:50:27.577Z,9.02
2023-04-15T19:52:56.184Z,8.43
2023-04-15T19:55:26.876Z,8.18
2023-04-15T19:58:04.504Z,7.80
2023-04-15T20:00:55.065Z,12.57
2023-04-15T20:03:58.745Z,9.40
2023-04-15T20:06:28.482Z,9.27
2023-04-15T20:08:56.353Z,9.88
2023-04-15T20:12:45.606Z,10.07
2023-04-15T20:14:17.551Z,9.20
2023-04-15T20:16:45.446Z,10.50
2023-04-15T20:19:13.857Z,9.98
2023-04-15T20:21:43.053Z,12.60
2023-04-15T20:24:10.977Z,8.48
2023-04-15T20:26:38.842Z,9.23
2023-04-15T20:29:06.834Z,9.27
2023-04-15T20:31:34.909Z,9.85
2023-04-15T20:34:02.588Z,11.13
2023-04-15T20:36:31.710Z,10.65
2023-04-15T20:39:00.731Z,10.15
2023-04-15T20:41:28.361Z,10.80
2023-04-15T20:43:56.124Z,11.70
2023-04-15T20:46:25.819Z,10.57
2023-04-15T20:48:55.645Z,11.15
2023-04-15T20:51:23.387Z,11.23
2023-04-15T20:53:51.221Z,13.45
2023-04-15T20:56:20.424Z,11.15
2023-04-15T20:58:48.164Z,10.70
2023-04-15T21:01:16.044Z,10.75
2023-04-15T21:03:43.892Z,8.85
2023-04-15T21:06:11.717Z,11.75
2023-04-15T21:08:40.202Z,10.18
2023-04-15T21:11:07.948Z,13.43
2023-04-15T21:13:37.065Z,12.52
2023-04-15T21:16:05.132Z,12.43
2023-04-15T21:18:32.803Z,11.20
2023-04-15T21:21:01.860Z,10.32
2023-04-15T21:23:30.802Z,11.85
2023-04-15T21:25:59.856Z,12.80
2023-04-15T21:28:28.286Z,11.05
2023-04-15T21:30:57.817Z,11.18
2023-04-15T21:33:25.486Z,13.45
2023-04-15T21:35:54.229Z,11.50
2023-04-15T21:38:23.350Z,11.82
2023-04-15T21:40:51.302Z,12.88
2023-04-15T21:43:19.120Z,12.55
2023-04-15T21:46:21.033Z,12.07
2023-04-15T21:48:36.256Z,13.75
2023-04-15T21:51:04.396Z,13.43
2023-04-15T21:53:32.115Z,12.88
2023-04-15T21:55:59.803Z,12.90
2023-04-15T21:58:27.503Z,16.35
2023-04-15T22:00:57.468Z,11.93
2023-04-15T22:03:25.726Z,12.75
2023-04-15T22:05:54.958Z,11.70
2023-04-15T22:08:22.837Z,14.55
2023-04-15T22:10:50.690Z,13.77
2023-04-15T22:13:18.494Z,13.85
2023-04-15T22:15:46.319Z,13.35
2023-04-15T22:18:14.466Z,13.82
2023-04-15T22:20:42.219Z,13.18
2023-04-15T22:23:11.516Z,12.57
2023-04-15T22:25:39.272Z,14.90
2023-04-15T22:28:08.339Z,16.48
2023-04-15T22:30:38.885Z,15.98
2023-04-15T22:33:07.583Z,13.77
2023-04-15T22:35:36.200Z,14.02
2023-04-15T22:38:04.569Z,14.23
2023-04-15T22:40:33.726Z,17.15
2023-04-15T22:43:01.576Z,15.57
2023-04-15T22:45:29.397Z,15.85
2023-04-15T22:47:57.216Z,16.70
2023-04-15T22:50:24.995Z,13.05
2023-04-15T22:52:52.669Z,15.15
2023-04-15T22:55:20.731Z,13.68
2023-04-15T22:57:50.221Z,15.43
2023-04-15T23:00:18.185Z,15.00
2023-04-15T23:02:46.219Z,15.60
2023-04-15T23:05:14.181Z,16.58
2023-04-15T23:07:41.905Z,17.67
2023-04-15T23:10:10.566Z,13.95
2023-04-15T23:12:38.333Z,14.05
2023-04-15T23:15:08.795Z,16.73
2023-04-15T23:17:36.543Z,15.15
2023-04-15T23:20:04.360Z,15.65
2023-04-15T23:22:32.084Z,17.52
2023-04-15T23:24:59.801Z,16.02
2023-04-15T23:27:27.480Z,18.00
2023-04-15T23:29:55.375Z,17.88
2023-04-15T23:32:24.476Z,17.88
2023-04-15T23:34:52.246Z,20.27
2023-04-15T23:37:20.089Z,17.08
2023-04-15T23:39:47.774Z,18.00
2023-04-15T23:42:15.648Z,19.42
2023-04-15T23:44:43.310Z,18.13
2023-04-15T23:47:11.581Z,18.05
2023-04-15T23:49:40.930Z,19.50
2023-04-15T23:52:09.058Z,18.52
2023-04-15T23:54:36.744Z,15.80
2023-04-15T23:57:04.427Z,18.60
2023-04-15T23:59:32.128Z,20.98
